Flight Briefing for CPX308

Departure Arrival
Theodore Francis Green State Airport (KPVD)
Click to view FAA NOTAMS
Chicago/Rockford International Airport (KRFD)
Click to view FAA NOTAMS
Departure Time Arrival Time
N/A N/A
Aircraft Distance
B767-300BDSF 790nm
Departure METAR Arrival METAR
KPVD 260851Z AUTO 36010KT 10SM CLR 00/M12 A3015 RMK AO2 SLP208 T00001122 53009 KRFD 260854Z 02003KT 10SM CLR M04/M09 A3041 RMK AO2 SLP306 T10391094 58000
Suggested Route
BAF HNK NUGNT DJB J60 JOT V171 RFD


View recent IFR Routes data
Notes



Charts and Procedures

Charts for KPVD
No chart available
Charts for KRFD
No chart available

Windy.com Weather Map